sensor_id;sensor_type;location;lat;lon;timestamp;temperature;humidity
7317;DHT22;3699;51.462;6.696;2023-03-01T00:00:00;1.40;99.90
7317;DHT22;3699;51.462;6.696;2023-03-01T00:02:26;1.30;99.90
7317;DHT22;3699;51.462;6.696;2023-03-01T00:04:55;1.20;99.90
7317;DHT22;3699;51.462;6.696;2023-03-01T00:07:21;1.20;99.90
7317;DHT22;3699;51.462;6.696;2023-03-01T00:09:48;1.20;99.90
7317;DHT22;3699;51.462;6.696;2023-03-01T00:12:15;1.10;99.90
7317;DHT22;3699;51.462;6.696;2023-03-01T00:14:41;1.10;99.90
7317;DHT22;3699;51.462;6.696;2023-03-01T00:17:08;1.20;99.90
7317;DHT22;3699;51.462;6.696;2023-03-01T00:19:35;0.90;99.90
7317;DHT22;3699;51.462;6.696;2023-03-01T00:22:03;1.10;99.90
7317;DHT22;3699;51.462;6.696;2023-03-01T00:24:30;1.20;99.90
7317;DHT22;3699;51.462;6.696;2023-03-01T00:26:56;1.20;99.90
7317;DHT22;3699;51.462;6.696;2023-03-01T00:29:24;1.00;99.90
7317;DHT22;3699;51.462;6.696;2023-03-01T00:31:51;0.90;99.90
7317;DHT22;3699;51.462;6.696;2023-03-01T00:34:17;1.10;99.90
7317;DHT22;3699;51.462;6.696;2023-03-01T00:36:45;1.10;99.90
7317;DHT22;3699;51.462;6.696;2023-03-01T00:39:14;1.10;99.90
7317;DHT22;3699;51.462;6.696;2023-03-01T00:41:42;1.10;99.90
7317;DHT22;3699;51.462;6.696;2023-03-01T00:44:10;1.00;99.90
7317;DHT22;3699;51.462;6.696;2023-03-01T00:46:36;1.00;99.90
7317;DHT22;3699;51.462;6.696;2023-03-01T00:51:31;0.90;99.90
7317;DHT22;3699;51.462;6.696;2023-03-01T00:53:59;0.90;99.90
7317;DHT22;3699;51.462;6.696;2023-03-01T00:56:28;0.60;99.90
7317;DHT22;3699;51.462;6.696;2023-03-01T00:58:55;0.80;99.90
7317;DHT22;3699;51.462;6.696;2023-03-01T01:01:23;0.70;99.90
7317;DHT22;3699;51.462;6.696;2023-03-01T01:03:54;0.80;99.90
7317;DHT22;3699;51.462;6.696;2023-03-01T01:06:22;0.70;99.90
7317;DHT22;3699;51.462;6.696;2023-03-01T01:08:50;0.70;99.90
7317;DHT22;3699;51.462;6.696;2023-03-01T01:11:17;0.50;99.90
7317;DHT22;3699;51.462;6.696;2023-03-01T01:13:46;0.60;99.90
7317;DHT22;3699;51.462;6.696;2023-03-01T01:16:14;1.00;99.90
7317;DHT22;3699;51.462;6.696;2023-03-01T01:18:40;0.60;99.90
7317;DHT22;3699;51.462;6.696;2023-03-01T01:21:09;0.60;99.90
7317;DHT22;3699;51.462;6.696;2023-03-01T01:23:36;0.40;99.90
7317;DHT22;3699;51.462;6.696;2023-03-01T01:26:04;0.50;99.90
7317;DHT22;3699;51.462;6.696;2023-03-01T01:28:32;0.40;99.90
7317;DHT22;3699;51.462;6.696;2023-03-01T01:31:00;0.40;99.90
7317;DHT22;3699;51.462;6.696;2023-03-01T01:35:53;0.40;99.90
7317;DHT22;3699;51.462;6.696;2023-03-01T01:38:20;0.50;99.90
7317;DHT22;3699;51.462;6.696;2023-03-01T01:40:48;0.50;99.90
7317;DHT22;3699;51.462;6.696;2023-03-01T01:43:19;0.40;99.90
7317;DHT22;3699;51.462;6.696;2023-03-01T01:45:46;0.40;99.90
7317;DHT22;3699;51.462;6.696;2023-03-01T01:48:18;0.40;99.90
7317;DHT22;3699;51.462;6.696;2023-03-01T01:50:45;0.40;99.90
7317;DHT22;3699;51.462;6.696;2023-03-01T01:53:19;0.70;99.90
7317;DHT22;3699;51.462;6.696;2023-03-01T01:55:49;0.30;99.90
7317;DHT22;3699;51.462;6.696;2023-03-01T01:58:19;0.70;99.90
7317;DHT22;3699;51.462;6.696;2023-03-01T02:00:47;0.20;99.90
7317;DHT22;3699;51.462;6.696;2023-03-01T02:03:19;0.20;99.90
7317;DHT22;3699;51.462;6.696;2023-03-01T02:05:49;0.20;99.90
7317;DHT22;3699;51.462;6.696;2023-03-01T02:08:19;0.20;99.90
7317;DHT22;3699;51.462;6.696;2023-03-01T02:10:48;0.20;99.90
7317;DHT22;3699;51.462;6.696;2023-03-01T02:13:16;0.10;99.90
7317;DHT22;3699;51.462;6.696;2023-03-01T02:15:42;0.10;99.90
7317;DHT22;3699;51.462;6.696;2023-03-01T02:18:12;0.10;99.90
7317;DHT22;3699;51.462;6.696;2023-03-01T02:20:48;0.10;99.90
7317;DHT22;3699;51.462;6.696;2023-03-01T02:23:17;0.20;99.90
7317;DHT22;3699;51.462;6.696;2023-03-01T02:25:49;0.20;99.90
7317;DHT22;3699;51.462;6.696;2023-03-01T02:28:29;0.20;99.90
7317;DHT22;3699;51.462;6.696;2023-03-01T02:30:56;0.20;99.90
7317;DHT22;3699;51.462;6.696;2023-03-01T02:33:41;0.40;99.90
7317;DHT22;3699;51.462;6.696;2023-03-01T02:36:11;0.30;99.90
7317;DHT22;3699;51.462;6.696;2023-03-01T02:38:40;0.20;99.90
7317;DHT22;3699;51.462;6.696;2023-03-01T02:41:08;0.30;99.90
7317;DHT22;3699;51.462;6.696;2023-03-01T02:43:36;0.20;99.90
7317;DHT22;3699;51.462;6.696;2023-03-01T02:46:06;0.20;99.90
7317;DHT22;3699;51.462;6.696;2023-03-01T02:48:41;0.30;99.90
7317;DHT22;3699;51.462;6.696;2023-03-01T02:51:14;0.30;99.90
7317;DHT22;3699;51.462;6.696;2023-03-01T02:53:51;0.30;99.90
7317;DHT22;3699;51.462;6.696;2023-03-01T02:56:20;0.30;99.90
7317;DHT22;3699;51.462;6.696;2023-03-01T02:58:48;0.20;99.90
7317;DHT22;3699;51.462;6.696;2023-03-01T03:01:17;0.20;99.90
7317;DHT22;3699;51.462;6.696;2023-03-01T03:03:43;0.10;99.90
7317;DHT22;3699;51.462;6.696;2023-03-01T03:06:10;0.10;99.90
7317;DHT22;3699;51.462;6.696;2023-03-01T03:08:37;0.10;99.90
7317;DHT22;3699;51.462;6.696;2023-03-01T03:13:31;0.00;99.90
7317;DHT22;3699;51.462;6.696;2023-03-01T03:15:59;0.00;99.90
7317;DHT22;3699;51.462;6.696;2023-03-01T03:20:53;-0.10;99.90
7317;DHT22;3699;51.462;6.696;2023-03-01T03:23:21;0.00;99.90
7317;DHT22;3699;51.462;6.696;2023-03-01T03:25:48;0.00;99.90
7317;DHT22;3699;51.462;6.696;2023-03-01T03:28:15;-0.10;99.90
7317;DHT22;3699;51.462;6.696;2023-03-01T03:30:43;-0.20;99.90
7317;DHT22;3699;51.462;6.696;2023-03-01T03:33:12;0.20;99.90
7317;DHT22;3699;51.462;6.696;2023-03-01T03:35:40;-0.10;99.90
7317;DHT22;3699;51.462;6.696;2023-03-01T03:38:10;-0.10;99.90
7317;DHT22;3699;51.462;6.696;2023-03-01T03:40:43;-0.20;99.90
7317;DHT22;3699;51.462;6.696;2023-03-01T03:43:12;-0.10;99.90
7317;DHT22;3699;51.462;6.696;2023-03-01T03:45:39;-0.20;99.90
7317;DHT22;3699;51.462;6.696;2023-03-01T03:48:07;-0.20;99.90
7317;DHT22;3699;51.462;6.696;2023-03-01T03:50:36;-0.30;99.90
7317;DHT22;3699;51.462;6.696;2023-03-01T03:53:05;-0.10;99.90
7317;DHT22;3699;51.462;6.696;2023-03-01T03:55:33;-0.40;99.90
7317;DHT22;3699;51.462;6.696;2023-03-01T03:58:00;-0.40;99.90
7317;DHT22;3699;51.462;6.696;2023-03-01T04:00:32;-0.30;99.90
7317;DHT22;3699;51.462;6.696;2023-03-01T04:03:00;-0.30;99.90
7317;DHT22;3699;51.462;6.696;2023-03-01T04:05:27;-0.10;99.90
7317;DHT22;3699;51.462;6.696;2023-03-01T04:07:56;-0.30;99.90
7317;DHT22;3699;51.462;6.696;2023-03-01T04:10:28;-0.30;99.90
7317;DHT22;3699;51.462;6.696;2023-03-01T04:12:54;-0.20;99.90
7317;DHT22;3699;51.462;6.696;2023-03-01T04:17:50;-0.20;99.90
7317;DHT22;3699;51.462;6.696;2023-03-01T04:20:20;-0.20;99.90
7317;DHT22;3699;51.462;6.696;2023-03-01T04:22:51;-0.20;99.90
7317;DHT22;3699;51.462;6.696;2023-03-01T04:25:19;-0.20;99.90
7317;DHT22;3699;51.462;6.696;2023-03-01T04:27:46;-0.20;99.90
7317;DHT22;3699;51.462;6.696;2023-03-01T04:35:07;-0.40;99.90
7317;DHT22;3699;51.462;6.696;2023-03-01T04:37:34;-0.40;99.90
7317;DHT22;3699;51.462;6.696;2023-03-01T04:42:39;-0.10;99.90
7317;DHT22;3699;51.462;6.696;2023-03-01T04:45:06;0.10;99.90
7317;DHT22;3699;51.462;6.696;2023-03-01T04:47:38;-0.20;99.90
7317;DHT22;3699;51.462;6.696;2023-03-01T04:50:06;-0.20;99.90
7317;DHT22;3699;51.462;6.696;2023-03-01T04:55:00;-0.50;99.90
7317;DHT22;3699;51.462;6.696;2023-03-01T04:57:27;-0.30;99.90
7317;DHT22;3699;51.462;6.696;2023-03-01T04:59:55;-0.30;99.90
7317;DHT22;3699;51.462;6.696;2023-03-01T05:04:48;-0.30;99.90
7317;DHT22;3699;51.462;6.696;2023-03-01T05:07:15;-0.30;99.90
7317;DHT22;3699;51.462;6.696;2023-03-01T05:09:44;-0.40;99.90
7317;DHT22;3699;51.462;6.696;2023-03-01T05:12:11;-0.30;99.90
7317;DHT22;3699;51.462;6.696;2023-03-01T05:14:38;-0.40;99.90
7317;DHT22;3699;51.462;6.696;2023-03-01T05:17:06;-0.50;99.90
7317;DHT22;3699;51.462;6.696;2023-03-01T05:22:00;-0.60;99.90
7317;DHT22;3699;51.462;6.696;2023-03-01T05:24:32;-0.50;99.90
7317;DHT22;3699;51.462;6.696;2023-03-01T05:26:59;-0.40;99.90
7317;DHT22;3699;51.462;6.696;2023-03-01T05:29:28;-0.50;99.90
7317;DHT22;3699;51.462;6.696;2023-03-01T05:31:56;-0.30;99.90
7317;DHT22;3699;51.462;6.696;2023-03-01T05:34:27;-0.50;99.90
7317;DHT22;3699;51.462;6.696;2023-03-01T05:36:54;-0.50;99.90
7317;DHT22;3699;51.462;6.696;2023-03-01T05:39:22;-0.60;99.90
7317;DHT22;3699;51.462;6.696;2023-03-01T05:41:52;-0.70;99.90
7317;DHT22;3699;51.462;6.696;2023-03-01T05:44:19;-0.50;99.90
7317;DHT22;3699;51.462;6.696;2023-03-01T05:46:46;-0.60;99.90
7317;DHT22;3699;51.462;6.696;2023-03-01T05:49:13;-0.50;99.90
7317;DHT22;3699;51.462;6.696;2023-03-01T05:51:41;-0.40;99.90
7317;DHT22;3699;51.462;6.696;2023-03-01T05:54:16;-0.50;99.90
7317;DHT22;3699;51.462;6.696;2023-03-01T05:56:44;-0.60;99.90
7317;DHT22;3699;51.462;6.696;2023-03-01T05:59:11;0.00;99.90
7317;DHT22;3699;51.462;6.696;2023-03-01T06:01:39;-0.40;99.90
7317;DHT22;3699;51.462;6.696;2023-03-01T06:04:06;-0.50;99.90
7317;DHT22;3699;51.462;6.696;2023-03-01T06:06:34;-0.50;99.90
7317;DHT22;3699;51.462;6.696;2023-03-01T06:09:04;-0.60;99.90
7317;DHT22;3699;51.462;6.696;2023-03-01T06:11:33;-0.50;99.90
7317;DHT22;3699;51.462;6.696;2023-03-01T06:14:00;-0.50;99.90
7317;DHT22;3699;51.462;6.696;2023-03-01T06:16:26;-0.60;99.90
7317;DHT22;3699;51.462;6.696;2023-03-01T06:18:53;-0.80;99.90
7317;DHT22;3699;51.462;6.696;2023-03-01T06:21:20;-0.60;99.90
7317;DHT22;3699;51.462;6.696;2023-03-01T06:23:47;-0.60;99.90
7317;DHT22;3699;51.462;6.696;2023-03-01T06:26:15;-0.70;99.90
7317;DHT22;3699;51.462;6.696;2023-03-01T06:28:41;0.00;99.90
7317;DHT22;3699;51.462;6.696;2023-03-01T06:31:11;-0.30;99.90
7317;DHT22;3699;51.462;6.696;2023-03-01T06:33:38;-0.50;99.90
7317;DHT22;3699;51.462;6.696;2023-03-01T06:36:05;-0.40;99.90
7317;DHT22;3699;51.462;6.696;2023-03-01T06:38:32;-0.50;99.90
7317;DHT22;3699;51.462;6.696;2023-03-01T06:40:59;-0.50;99.90
7317;DHT22;3699;51.462;6.696;2023-03-01T06:43:28;-0.40;99.90
7317;DHT22;3699;51.462;6.696;2023-03-01T06:45:55;-0.50;99.90
7317;DHT22;3699;51.462;6.696;2023-03-01T06:48:21;-0.40;99.90
7317;DHT22;3699;51.462;6.696;2023-03-01T06:50:48;-0.50;99.90
7317;DHT22;3699;51.462;6.696;2023-03-01T06:53:15;-0.40;99.90
7317;DHT22;3699;51.462;6.696;2023-03-01T06:55:41;-0.30;99.90
7317;DHT22;3699;51.462;6.696;2023-03-01T06:58:08;-0.40;99.90
7317;DHT22;3699;51.462;6.696;2023-03-01T07:00:36;-0.30;99.90
7317;DHT22;3699;51.462;6.696;2023-03-01T07:03:05;-0.40;99.90
7317;DHT22;3699;51.462;6.696;2023-03-01T07:05:33;-0.30;99.90
7317;DHT22;3699;51.462;6.696;2023-03-01T07:08:00;-0.30;99.90
7317;DHT22;3699;51.462;6.696;2023-03-01T07:10:27;-0.20;99.90
7317;DHT22;3699;51.462;6.696;2023-03-01T07:12:55;-0.30;99.90
7317;DHT22;3699;51.462;6.696;2023-03-01T07:15:21;0.00;99.90
7317;DHT22;3699;51.462;6.696;2023-03-01T07:17:49;0.10;99.90
7317;DHT22;3699;51.462;6.696;2023-03-01T07:20:17;0.80;99.90
7317;DHT22;3699;51.462;6.696;2023-03-01T07:22:43;1.00;99.90
7317;DHT22;3699;51.462;6.696;2023-03-01T07:25:11;1.10;99.90
7317;DHT22;3699;51.462;6.696;2023-03-01T07:27:37;1.40;99.90
7317;DHT22;3699;51.462;6.696;2023-03-01T07:30:05;1.80;99.90
7317;DHT22;3699;51.462;6.696;2023-03-01T07:32:32;2.10;99.90
7317;DHT22;3699;51.462;6.696;2023-03-01T07:35:00;2.50;99.90
7317;DHT22;3699;51.462;6.696;2023-03-01T07:37:27;3.00;99.90
7317;DHT22;3699;51.462;6.696;2023-03-01T07:40:03;3.00;99.90
7317;DHT22;3699;51.462;6.696;2023-03-01T07:42:30;3.30;99.90
7317;DHT22;3699;51.462;6.696;2023-03-01T07:44:56;3.60;99.90
7317;DHT22;3699;51.462;6.696;2023-03-01T07:47:23;3.70;99.90
7317;DHT22;3699;51.462;6.696;2023-03-01T07:49:50;3.90;99.90
7317;DHT22;3699;51.462;6.696;2023-03-01T07:52:18;4.10;97.80
7317;DHT22;3699;51.462;6.696;2023-03-01T07:54:44;4.30;94.00
7317;DHT22;3699;51.462;6.696;2023-03-01T07:57:11;4.40;93.50
7317;DHT22;3699;51.462;6.696;2023-03-01T07:59:38;4.50;88.30
7317;DHT22;3699;51.462;6.696;2023-03-01T08:02:05;4.70;90.40
7317;DHT22;3699;51.462;6.696;2023-03-01T08:04:31;4.80;81.80
7317;DHT22;3699;51.462;6.696;2023-03-01T08:06:58;4.90;77.10
7317;DHT22;3699;51.462;6.696;2023-03-01T08:09:34;4.90;73.70
7317;DHT22;3699;51.462;6.696;2023-03-01T08:12:01;5.00;74.80
7317;DHT22;3699;51.462;6.696;2023-03-01T08:14:30;5.10;72.50
7317;DHT22;3699;51.462;6.696;2023-03-01T08:16:56;5.10;74.60
7317;DHT22;3699;51.462;6.696;2023-03-01T08:19:23;5.20;74.30
7317;DHT22;3699;51.462;6.696;2023-03-01T08:21:50;5.10;68.80
7317;DHT22;3699;51.462;6.696;2023-03-01T08:24:16;5.00;71.00
7317;DHT22;3699;51.462;6.696;2023-03-01T08:26:44;4.70;70.80
7317;DHT22;3699;51.462;6.696;2023-03-01T08:29:11;4.60;72.40
7317;DHT22;3699;51.462;6.696;2023-03-01T08:31:39;4.60;76.20
7317;DHT22;3699;51.462;6.696;2023-03-01T08:34:08;4.50;76.90
7317;DHT22;3699;51.462;6.696;2023-03-01T08:36:37;4.40;82.10
7317;DHT22;3699;51.462;6.696;2023-03-01T08:39:05;4.40;88.10
7317;DHT22;3699;51.462;6.696;2023-03-01T08:41:32;4.50;91.10
7317;DHT22;3699;51.462;6.696;2023-03-01T08:44:00;4.60;91.80
7317;DHT22;3699;51.462;6.696;2023-03-01T08:46:27;4.70;86.30
7317;DHT22;3699;51.462;6.696;2023-03-01T08:48:54;4.60;81.40
7317;DHT22;3699;51.462;6.696;2023-03-01T08:51:22;4.60;82.60
7317;DHT22;3699;51.462;6.696;2023-03-01T08:53:49;4.70;85.20
7317;DHT22;3699;51.462;6.696;2023-03-01T08:56:16;4.70;80.50
7317;DHT22;3699;51.462;6.696;2023-03-01T08:58:45;4.80;84.00
7317;DHT22;3699;51.462;6.696;2023-03-01T09:01:15;4.90;82.40
7317;DHT22;3699;51.462;6.696;2023-03-01T09:03:42;5.00;79.20
7317;DHT22;3699;51.462;6.696;2023-03-01T09:06:09;5.10;72.70
7317;DHT22;3699;51.462;6.696;2023-03-01T09:08:41;5.10;75.30
7317;DHT22;3699;51.462;6.696;2023-03-01T09:11:10;5.20;71.50
7317;DHT22;3699;51.462;6.696;2023-03-01T09:13:37;5.10;69.60
7317;DHT22;3699;51.462;6.696;2023-03-01T09:16:06;5.20;70.70
7317;DHT22;3699;51.462;6.696;2023-03-01T09:18:35;5.20;69.90
7317;DHT22;3699;51.462;6.696;2023-03-01T09:21:03;5.30;68.70
7317;DHT22;3699;51.462;6.696;2023-03-01T09:23:32;5.30;63.40
7317;DHT22;3699;51.462;6.696;2023-03-01T09:25:59;5.30;61.60
7317;DHT22;3699;51.462;6.696;2023-03-01T09:28:26;5.40;62.20
7317;DHT22;3699;51.462;6.696;2023-03-01T09:30:52;5.60;60.20
7317;DHT22;3699;51.462;6.696;2023-03-01T09:33:19;5.60;59.20
7317;DHT22;3699;51.462;6.696;2023-03-01T09:35:47;5.70;57.70
7317;DHT22;3699;51.462;6.696;2023-03-01T09:38:14;5.60;56.00
7317;DHT22;3699;51.462;6.696;2023-03-01T09:40:43;5.60;55.70
7317;DHT22;3699;51.462;6.696;2023-03-01T09:43:17;5.60;54.10
7317;DHT22;3699;51.462;6.696;2023-03-01T09:45:45;5.50;53.90
7317;DHT22;3699;51.462;6.696;2023-03-01T09:48:16;5.60;54.60
7317;DHT22;3699;51.462;6.696;2023-03-01T09:50:46;5.70;54.00
7317;DHT22;3699;51.462;6.696;2023-03-01T09:53:15;5.60;53.00
7317;DHT22;3699;51.462;6.696;2023-03-01T09:55:45;5.60;53.20
7317;DHT22;3699;51.462;6.696;2023-03-01T09:58:29;5.70;54.30
7317;DHT22;3699;51.462;6.696;2023-03-01T10:01:01;5.80;53.20
7317;DHT22;3699;51.462;6.696;2023-03-01T10:03:36;5.90;52.70
7317;DHT22;3699;51.462;6.696;2023-03-01T10:06:11;5.90;50.60
7317;DHT22;3699;51.462;6.696;2023-03-01T10:08:42;5.90;51.30
7317;DHT22;3699;51.462;6.696;2023-03-01T10:11:20;6.00;50.40
7317;DHT22;3699;51.462;6.696;2023-03-01T10:13:51;5.90;50.70
7317;DHT22;3699;51.462;6.696;2023-03-01T10:16:26;6.00;50.90
7317;DHT22;3699;51.462;6.696;2023-03-01T10:18:57;6.10;49.20
7317;DHT22;3699;51.462;6.696;2023-03-01T10:21:27;6.10;48.00
7317;DHT22;3699;51.462;6.696;2023-03-01T10:24:08;6.10;48.00
7317;DHT22;3699;51.462;6.696;2023-03-01T10:26:44;6.00;47.10
7317;DHT22;3699;51.462;6.696;2023-03-01T10:29:15;5.90;45.90
7317;DHT22;3699;51.462;6.696;2023-03-01T10:31:43;5.90;46.70
7317;DHT22;3699;51.462;6.696;2023-03-01T10:34:13;5.80;45.80
7317;DHT22;3699;51.462;6.696;2023-03-01T10:36:43;5.80;46.60
7317;DHT22;3699;51.462;6.696;2023-03-01T10:39:16;5.90;46.70
7317;DHT22;3699;51.462;6.696;2023-03-01T10:41:58;6.00;47.40
7317;DHT22;3699;51.462;6.696;2023-03-01T10:44:43;6.10;47.30
7317;DHT22;3699;51.462;6.696;2023-03-01T10:47:16;6.30;46.90
7317;DHT22;3699;51.462;6.696;2023-03-01T10:49:53;6.30;44.30
7317;DHT22;3699;51.462;6.696;2023-03-01T10:52:25;6.30;45.10
7317;DHT22;3699;51.462;6.696;2023-03-01T10:54:54;6.40;44.80
7317;DHT22;3699;51.462;6.696;2023-03-01T10:57:28;6.50;43.50
7317;DHT22;3699;51.462;6.696;2023-03-01T11:02:47;6.60;42.20
7317;DHT22;3699;51.462;6.696;2023-03-01T11:05:19;6.60;41.30
7317;DHT22;3699;51.462;6.696;2023-03-01T11:07:52;6.60;41.70
7317;DHT22;3699;51.462;6.696;2023-03-01T11:10:21;6.70;42.20
7317;DHT22;3699;51.462;6.696;2023-03-01T11:12:48;6.80;40.60
7317;DHT22;3699;51.462;6.696;2023-03-01T11:15:22;6.80;41.20
7317;DHT22;3699;51.462;6.696;2023-03-01T11:17:50;7.00;41.60
7317;DHT22;3699;51.462;6.696;2023-03-01T11:20:24;7.10;39.00
7317;DHT22;3699;51.462;6.696;2023-03-01T11:22:54;7.00;38.50
7317;DHT22;3699;51.462;6.696;2023-03-01T11:25:25;7.00;37.60
7317;DHT22;3699;51.462;6.696;2023-03-01T11:27:53;7.00;36.50
7317;DHT22;3699;51.462;6.696;2023-03-01T11:30:23;7.00;36.70
7317;DHT22;3699;51.462;6.696;2023-03-01T11:32:56;7.00;36.50
7317;DHT22;3699;51.462;6.696;2023-03-01T11:35:27;7.00;36.60
7317;DHT22;3699;51.462;6.696;2023-03-01T11:38:05;7.00;36.80
7317;DHT22;3699;51.462;6.696;2023-03-01T11:40:40;7.20;37.90
7317;DHT22;3699;51.462;6.696;2023-03-01T11:43:14;7.30;37.90
7317;DHT22;3699;51.462;6.696;2023-03-01T11:45:48;7.40;36.20
7317;DHT22;3699;51.462;6.696;2023-03-01T11:48:38;7.50;36.30
7317;DHT22;3699;51.462;6.696;2023-03-01T11:51:14;7.50;34.10
7317;DHT22;3699;51.462;6.696;2023-03-01T11:53:55;7.50;33.80
7317;DHT22;3699;51.462;6.696;2023-03-01T11:56:31;7.50;35.10
7317;DHT22;3699;51.462;6.696;2023-03-01T11:59:25;7.50;33.10
7317;DHT22;3699;51.462;6.696;2023-03-01T12:02:08;7.40;33.50
7317;DHT22;3699;51.462;6.696;2023-03-01T12:05:00;7.40;33.00
7317;DHT22;3699;51.462;6.696;2023-03-01T12:07:35;7.50;34.40
7317;DHT22;3699;51.462;6.696;2023-03-01T12:10:19;7.60;33.90
7317;DHT22;3699;51.462;6.696;2023-03-01T12:13:01;7.60;33.70
7317;DHT22;3699;51.462;6.696;2023-03-01T12:16:02;7.60;34.40
7317;DHT22;3699;51.462;6.696;2023-03-01T12:18:52;7.60;35.00
7317;DHT22;3699;51.462;6.696;2023-03-01T12:21:34;7.60;33.20
7317;DHT22;3699;51.462;6.696;2023-03-01T12:27:05;7.70;33.40
7317;DHT22;3699;51.462;6.696;2023-03-01T12:29:37;7.80;33.40
7317;DHT22;3699;51.462;6.696;2023-03-01T12:32:39;7.90;33.90
7317;DHT22;3699;51.462;6.696;2023-03-01T12:35:30;7.90;32.20
7317;DHT22;3699;51.462;6.696;2023-03-01T12:38:06;8.00;33.30
7317;DHT22;3699;51.462;6.696;2023-03-01T12:43:46;8.00;32.70
7317;DHT22;3699;51.462;6.696;2023-03-01T12:46:25;7.90;32.20
7317;DHT22;3699;51.462;6.696;2023-03-01T12:49:02;7.90;33.60
7317;DHT22;3699;51.462;6.696;2023-03-01T12:51:31;8.00;33.60
7317;DHT22;3699;51.462;6.696;2023-03-01T12:54:05;8.00;34.20
7317;DHT22;3699;51.462;6.696;2023-03-01T12:56:36;8.00;35.10
7317;DHT22;3699;51.462;6.696;2023-03-01T12:59:11;8.10;34.30
7317;DHT22;3699;51.462;6.696;2023-03-01T13:01:45;8.10;33.20
7317;DHT22;3699;51.462;6.696;2023-03-01T13:04:25;8.10;33.60
7317;DHT22;3699;51.462;6.696;2023-03-01T13:07:00;8.10;34.10
7317;DHT22;3699;51.462;6.696;2023-03-01T13:09:32;8.10;33.50
7317;DHT22;3699;51.462;6.696;2023-03-01T13:12:01;8.10;32.80
7317;DHT22;3699;51.462;6.696;2023-03-01T13:14:37;8.00;32.30
7317;DHT22;3699;51.462;6.696;2023-03-01T13:17:31;7.90;33.10
7317;DHT22;3699;51.462;6.696;2023-03-01T13:19:58;8.00;34.00
7317;DHT22;3699;51.462;6.696;2023-03-01T13:22:28;7.90;33.30
7317;DHT22;3699;51.462;6.696;2023-03-01T13:25:10;7.90;33.20
7317;DHT22;3699;51.462;6.696;2023-03-01T13:27:38;7.90;33.50
7317;DHT22;3699;51.462;6.696;2023-03-01T13:30:39;8.00;33.00
7317;DHT22;3699;51.462;6.696;2023-03-01T13:33:41;8.00;33.10
7317;DHT22;3699;51.462;6.696;2023-03-01T13:36:09;8.00;33.30
7317;DHT22;3699;51.462;6.696;2023-03-01T13:38:46;8.10;34.00
7317;DHT22;3699;51.462;6.696;2023-03-01T13:41:14;8.20;34.20
7317;DHT22;3699;51.462;6.696;2023-03-01T13:43:43;8.20;31.60
7317;DHT22;3699;51.462;6.696;2023-03-01T13:46:16;8.30;31.30
7317;DHT22;3699;51.462;6.696;2023-03-01T13:48:45;8.30;30.70
7317;DHT22;3699;51.462;6.696;2023-03-01T13:51:13;8.30;31.30
7317;DHT22;3699;51.462;6.696;2023-03-01T13:53:42;8.20;31.90
7317;DHT22;3699;51.462;6.696;2023-03-01T13:56:12;8.20;32.70
7317;DHT22;3699;51.462;6.696;2023-03-01T13:58:48;8.20;33.80
7317;DHT22;3699;51.462;6.696;2023-03-01T14:01:26;8.20;34.20
7317;DHT22;3699;51.462;6.696;2023-03-01T14:03:53;8.20;34.30
7317;DHT22;3699;51.462;6.696;2023-03-01T14:06:23;8.30;33.50
7317;DHT22;3699;51.462;6.696;2023-03-01T14:09:00;8.30;33.10
7317;DHT22;3699;51.462;6.696;2023-03-01T14:11:59;8.40;33.70
7317;DHT22;3699;51.462;6.696;2023-03-01T14:14:35;8.30;33.80
7317;DHT22;3699;51.462;6.696;2023-03-01T14:17:24;8.40;33.60
7317;DHT22;3699;51.462;6.696;2023-03-01T14:19:56;8.30;32.70
7317;DHT22;3699;51.462;6.696;2023-03-01T14:22:25;8.30;32.70
7317;DHT22;3699;51.462;6.696;2023-03-01T14:24:55;8.30;32.80
7317;DHT22;3699;51.462;6.696;2023-03-01T14:27:26;8.20;32.20
7317;DHT22;3699;51.462;6.696;2023-03-01T14:29:57;8.20;31.30
7317;DHT22;3699;51.462;6.696;2023-03-01T14:32:27;8.20;30.70
7317;DHT22;3699;51.462;6.696;2023-03-01T14:34:56;8.10;29.70
7317;DHT22;3699;51.462;6.696;2023-03-01T14:37:25;8.10;30.10
7317;DHT22;3699;51.462;6.696;2023-03-01T14:39:54;8.00;31.50
7317;DHT22;3699;51.462;6.696;2023-03-01T14:42:22;8.10;31.30
7317;DHT22;3699;51.462;6.696;2023-03-01T14:44:51;8.10;30.40
7317;DHT22;3699;51.462;6.696;2023-03-01T14:47:25;8.10;30.40
7317;DHT22;3699;51.462;6.696;2023-03-01T14:49:57;8.10;30.00
7317;DHT22;3699;51.462;6.696;2023-03-01T14:52:31;8.10;30.20
7317;DHT22;3699;51.462;6.696;2023-03-01T14:55:02;8.10;30.60
7317;DHT22;3699;51.462;6.696;2023-03-01T14:57:30;8.10;30.10
7317;DHT22;3699;51.462;6.696;2023-03-01T14:59:58;8.10;30.10
7317;DHT22;3699;51.462;6.696;2023-03-01T15:02:29;8.10;29.90
7317;DHT22;3699;51.462;6.696;2023-03-01T15:04:59;8.10;29.50
7317;DHT22;3699;51.462;6.696;2023-03-01T15:07:30;8.00;30.20
7317;DHT22;3699;51.462;6.696;2023-03-01T15:09:58;8.00;30.20
7317;DHT22;3699;51.462;6.696;2023-03-01T15:12:39;8.00;30.10
7317;DHT22;3699;51.462;6.696;2023-03-01T15:15:30;8.00;29.60
7317;DHT22;3699;51.462;6.696;2023-03-01T15:17:59;8.00;29.80
7317;DHT22;3699;51.462;6.696;2023-03-01T15:20:29;7.90;29.60
7317;DHT22;3699;51.462;6.696;2023-03-01T15:23:01;7.90;29.30
7317;DHT22;3699;51.462;6.696;2023-03-01T15:25:29;7.90;29.10
7317;DHT22;3699;51.462;6.696;2023-03-01T15:27:58;7.80;28.60
7317;DHT22;3699;51.462;6.696;2023-03-01T15:30:28;7.80;29.40
7317;DHT22;3699;51.462;6.696;2023-03-01T15:33:27;7.70;30.20
7317;DHT22;3699;51.462;6.696;2023-03-01T15:35:57;7.70;30.30
7317;DHT22;3699;51.462;6.696;2023-03-01T15:38:30;7.70;30.70
7317;DHT22;3699;51.462;6.696;2023-03-01T15:40:59;7.70;31.10
7317;DHT22;3699;51.462;6.696;2023-03-01T15:43:44;7.60;29.90
7317;DHT22;3699;51.462;6.696;2023-03-01T15:46:26;7.60;29.30
7317;DHT22;3699;51.462;6.696;2023-03-01T15:48:56;7.60;29.70
7317;DHT22;3699;51.462;6.696;2023-03-01T15:51:28;7.60;30.00
7317;DHT22;3699;51.462;6.696;2023-03-01T15:53:57;7.60;29.80
7317;DHT22;3699;51.462;6.696;2023-03-01T15:56:24;7.50;29.60
7317;DHT22;3699;51.462;6.696;2023-03-01T15:58:51;7.50;30.20
7317;DHT22;3699;51.462;6.696;2023-03-01T16:01:18;7.50;30.50
7317;DHT22;3699;51.462;6.696;2023-03-01T16:03:45;7.50;30.00
7317;DHT22;3699;51.462;6.696;2023-03-01T16:06:12;7.40;30.10
7317;DHT22;3699;51.462;6.696;2023-03-01T16:08:40;7.40;30.70
7317;DHT22;3699;51.462;6.696;2023-03-01T16:11:14;7.30;30.90
7317;DHT22;3699;51.462;6.696;2023-03-01T16:13:41;7.30;30.00
7317;DHT22;3699;51.462;6.696;2023-03-01T16:16:09;7.30;30.70
7317;DHT22;3699;51.462;6.696;2023-03-01T16:18:38;5.80;29.90
7317;DHT22;3699;51.462;6.696;2023-03-01T16:21:05;7.30;30.70
7317;DHT22;3699;51.462;6.696;2023-03-01T16:23:31;7.20;31.00
7317;DHT22;3699;51.462;6.696;2023-03-01T16:26:00;7.20;31.20
7317;DHT22;3699;51.462;6.696;2023-03-01T16:28:27;7.20;31.50
7317;DHT22;3699;51.462;6.696;2023-03-01T16:30:53;7.10;30.90
7317;DHT22;3699;51.462;6.696;2023-03-01T16:33:20;7.10;31.40
7317;DHT22;3699;51.462;6.696;2023-03-01T16:35:47;7.10;31.90
7317;DHT22;3699;51.462;6.696;2023-03-01T16:38:14;7.10;32.20
7317;DHT22;3699;51.462;6.696;2023-03-01T16:40:47;7.00;32.40
7317;DHT22;3699;51.462;6.696;2023-03-01T16:43:15;6.90;32.20
7317;DHT22;3699;51.462;6.696;2023-03-01T16:45:42;6.90;32.90
7317;DHT22;3699;51.462;6.696;2023-03-01T16:48:10;6.90;33.50
7317;DHT22;3699;51.462;6.696;2023-03-01T16:50:37;6.80;34.00
7317;DHT22;3699;51.462;6.696;2023-03-01T16:53:04;6.80;34.10
7317;DHT22;3699;51.462;6.696;2023-03-01T16:55:31;6.70;33.80
7317;DHT22;3699;51.462;6.696;2023-03-01T16:58:01;6.60;33.80
7317;DHT22;3699;51.462;6.696;2023-03-01T17:00:30;6.60;34.40
7317;DHT22;3699;51.462;6.696;2023-03-01T17:02:57;6.60;34.60
7317;DHT22;3699;51.462;6.696;2023-03-01T17:05:24;6.50;34.90
7317;DHT22;3699;51.462;6.696;2023-03-01T17:07:51;6.40;34.60
7317;DHT22;3699;51.462;6.696;2023-03-01T17:10:20;6.40;35.20